Time;durP1;ratioP1;P1;durP2;ratioP2;P2;SDS_P1;SDS_P2;PMS_P1;PMS_P2;Temp;Humidity;BMP_temperature;BMP_pressure;BME280_temperature;BME280_humidity;BME280_pressure;Samples;Min_cycle;Max_cycle;Signal;HPM_P1;HPM_P2
2023/06/11 00:01:14;;;;;;;11.68;9.75;;;24.80;1.00;;;;;;4935497;29;20042;-60
2023/06/11 00:03:43;;;;;;;15.07;10.23;;;24.80;1.00;;;;;;4936500;29;20475;-60
2023/06/11 00:06:10;;;;;;;11.48;10.15;;;24.80;1.00;;;;;;4939601;29;20035;-59
2023/06/11 00:08:36;;;;;;;11.95;10.45;;;24.80;1.00;;;;;;4937150;29;20125;-60
2023/06/11 00:11:02;;;;;;;10.73;9.20;;;24.70;1.00;;;;;;4936995;29;20164;-60
2023/06/11 00:13:28;;;;;;;10.60;9.43;;;24.70;1.00;;;;;;4937763;29;20171;-60
2023/06/11 00:15:54;;;;;;;10.70;7.95;;;24.60;1.00;;;;;;4934531;29;20132;-59
2023/06/11 00:18:20;;;;;;;9.52;8.57;;;24.60;1.00;;;;;;4936869;29;20110;-60
2023/06/11 00:20:46;;;;;;;9.55;7.47;;;24.60;1.00;;;;;;4937353;29;20509;-60
2023/06/11 00:23:11;;;;;;;9.38;7.88;;;24.60;1.00;;;;;;4936976;29;20489;-60
2023/06/11 00:25:37;;;;;;;11.77;8.38;;;24.60;1.00;;;;;;4937895;29;20478;-60
2023/06/11 00:28:03;;;;;;;9.98;7.65;;;24.60;1.00;;;;;;4934933;29;20024;-60
2023/06/11 00:30:29;;;;;;;8.88;7.57;;;24.60;1.00;;;;;;4934745;29;20106;-59
2023/06/11 00:33:13;;;;;;;10.90;8.57;;;24.60;1.00;;;;;;4936967;29;20020;-60
2023/06/11 00:35:39;;;;;;;9.40;7.82;;;24.60;1.00;;;;;;4937758;29;20040;-60
2023/06/11 00:38:05;;;;;;;9.15;7.45;;;24.60;1.00;;;;;;4929241;29;20111;-60
2023/06/11 00:40:31;;;;;;;9.18;7.38;;;24.60;1.00;;;;;;4924365;29;20486;-60
2023/06/11 00:42:57;;;;;;;7.75;6.95;;;24.60;1.00;;;;;;4942232;29;20023;-60
2023/06/11 00:45:24;;;;;;;10.07;7.28;;;24.60;1.00;;;;;;4936847;29;20103;-60
2023/06/11 00:47:50;;;;;;;8.43;6.45;;;24.60;1.00;;;;;;4941704;29;20066;-60
2023/06/11 00:50:16;;;;;;;8.65;7.03;;;24.50;1.00;;;;;;4936425;29;20062;-60
2023/06/11 00:52:42;;;;;;;8.82;6.93;;;24.50;1.00;;;;;;4933198;29;20470;-60
2023/06/11 00:55:09;;;;;;;6.82;6.20;;;24.50;1.00;;;;;;4929887;29;20103;-60
2023/06/11 00:57:36;;;;;;;8.57;6.30;;;24.50;1.00;;;;;;4931503;29;20031;-59
2023/06/11 01:00:07;;;;;;;7.72;6.93;;;24.50;1.00;;;;;;4936512;29;20071;-59
2023/06/11 01:02:49;;;;;;;9.88;7.32;;;24.50;1.00;;;;;;4946597;29;20031;-60
2023/06/11 01:05:21;;;;;;;8.93;7.93;;;24.50;1.00;;;;;;4936513;29;20054;-60
2023/06/11 01:07:55;;;;;;;9.60;6.70;;;24.40;1.00;;;;;;4932371;29;20042;-60
2023/06/11 01:10:22;;;;;;;7.43;6.72;;;24.30;1.00;;;;;;4935654;29;20039;-60
2023/06/11 01:12:48;;;;;;;7.32;6.57;;;24.30;1.00;;;;;;4944114;29;20039;-60
2023/06/11 01:15:15;;;;;;;8.07;7.28;;;24.20;1.00;;;;;;4932809;29;20020;-60
2023/06/11 01:18:05;;;;;;;8.00;7.20;;;24.20;1.00;;;;;;4941849;29;20039;-60
2023/06/11 01:20:38;;;;;;;8.32;7.53;;;24.20;1.00;;;;;;4939633;29;20039;-60
2023/06/11 01:23:16;;;;;;;9.27;7.82;;;24.20;1.00;;;;;;4937448;28;20054;-60
2023/06/11 01:26:27;;;;;;;9.07;7.32;;;24.10;1.00;;;;;;4928399;29;20048;-60
2023/06/11 01:28:55;;;;;;;8.18;7.38;;;24.00;1.00;;;;;;4935197;29;20046;-60
2023/06/11 01:31:21;;;;;;;11.38;7.70;;;23.90;1.00;;;;;;4937380;29;20039;-60
2023/06/11 01:34:41;;;;;;;8.30;7.38;;;23.90;1.00;;;;;;4935225;29;20436;-59
2023/06/11 01:37:12;;;;;;;10.10;7.38;;;23.90;1.00;;;;;;4937905;29;20032;-60
2023/06/11 01:39:37;;;;;;;8.30;7.50;;;23.90;1.00;;;;;;4937722;29;20505;-60
2023/06/11 01:42:05;;;;;;;9.55;7.40;;;23.90;1.00;;;;;;4934825;29;20024;-60
2023/06/11 01:44:32;;;;;;;8.52;7.10;;;23.90;1.00;;;;;;4932436;29;20110;-60
2023/06/11 01:46:58;;;;;;;7.28;6.65;;;23.80;1.00;;;;;;4936082;29;20039;-60
2023/06/11 01:49:24;;;;;;;8.70;7.78;;;23.70;1.00;;;;;;4935589;29;20043;-59
2023/06/11 01:51:50;;;;;;;8.02;7.22;;;23.70;1.00;;;;;;4949294;29;20015;-59
2023/06/11 01:54:17;;;;;;;8.32;7.35;;;23.60;1.00;;;;;;4936139;29;20039;-60
2023/06/11 01:56:43;;;;;;;9.98;7.90;;;23.70;1.00;;;;;;4939168;29;20066;-60
2023/06/11 01:59:09;;;;;;;8.55;7.65;;;23.70;1.00;;;;;;4935573;29;20544;-60
2023/06/11 02:01:36;;;;;;;8.70;7.80;;;23.70;1.00;;;;;;4921863;29;20044;-60
2023/06/11 02:04:03;;;;;;;10.38;8.55;;;23.70;1.00;;;;;;4939835;29;20054;-60
2023/06/11 02:06:29;;;;;;;8.60;7.80;;;23.60;1.00;;;;;;4940625;29;20042;-60
2023/06/11 02:08:55;;;;;;;9.65;8.52;;;23.60;1.00;;;;;;4935821;29;20042;-60
2023/06/11 02:11:21;;;;;;;9.05;8.23;;;23.60;1.00;;;;;;4933052;29;20027;-60
2023/06/11 02:13:46;;;;;;;10.15;8.23;;;23.50;1.00;;;;;;4926372;29;20036;-60
2023/06/11 02:16:12;;;;;;;9.45;8.52;;;23.50;1.00;;;;;;4940323;29;20086;-59
2023/06/11 02:18:38;;;;;;;10.02;9.00;;;23.50;1.00;;;;;;4931251;29;20044;-60
2023/06/11 02:21:03;;;;;;;10.73;9.65;;;23.50;1.00;;;;;;4939571;29;20036;-60
2023/06/11 02:23:29;;;;;;;9.90;8.90;;;23.50;1.00;;;;;;4934560;29;20028;-59
2023/06/11 02:25:55;;;;;;;10.23;8.80;;;23.50;1.00;;;;;;4938949;29;20114;-60
2023/06/11 02:28:21;;;;;;;11.95;9.93;;;23.60;1.00;;;;;;4944664;29;20147;-60
2023/06/11 02:30:46;;;;;;;9.77;8.77;;;23.50;1.00;;;;;;4933339;29;20059;-60
2023/06/11 02:33:12;;;;;;;10.75;9.45;;;23.60;1.00;;;;;;4931247;29;20035;-60
2023/06/11 02:35:38;;;;;;;11.38;9.30;;;23.50;1.00;;;;;;4933825;29;20481;-60
2023/06/11 02:38:03;;;;;;;11.02;8.63;;;23.50;1.00;;;;;;4946553;29;20035;-59
2023/06/11 02:40:29;;;;;;;9.50;8.50;;;23.50;1.00;;;;;;4936189;29;20040;-60
2023/06/11 02:42:54;;;;;;;9.20;8.35;;;23.50;1.00;;;;;;4938035;29;20039;-60
2023/06/11 02:45:20;;;;;;;9.48;8.50;;;23.40;1.00;;;;;;4939048;29;20561;-60
2023/06/11 02:47:46;;;;;;;8.23;7.40;;;23.40;1.00;;;;;;4941937;29;20270;-60
2023/06/11 02:50:11;;;;;;;9.30;7.97;;;23.40;1.00;;;;;;4937528;29;20036;-60
2023/06/11 02:52:37;;;;;;;7.68;6.90;;;23.40;1.00;;;;;;4938820;29;20031;-60
2023/06/11 02:55:03;;;;;;;7.78;7.07;;;23.40;1.00;;;;;;4931164;29;20120;-60
2023/06/11 03:00:50;;;;;;;8.88;7.97;;;23.40;1.00;;;;;;4923666;29;20055;-59
2023/06/11 03:03:16;;;;;;;8.27;7.13;;;23.30;1.00;;;;;;4932045;29;20032;-60
2023/06/11 03:05:42;;;;;;;7.82;7.03;;;23.30;1.00;;;;;;4938822;29;20394;-60
2023/06/11 03:08:07;;;;;;;8.27;7.47;;;23.30;1.00;;;;;;4938750;29;20027;-59
2023/06/11 03:10:33;;;;;;;8.10;7.30;;;23.30;1.00;;;;;;4936635;29;20038;-60
2023/06/11 03:12:59;;;;;;;8.02;6.93;;;23.30;1.00;;;;;;4946840;29;20046;-60
2023/06/11 03:15:25;;;;;;;7.20;6.50;;;23.30;1.00;;;;;;4936764;29;20046;-60
2023/06/11 03:17:50;;;;;;;6.95;6.32;;;23.30;1.00;;;;;;4938442;29;20107;-60
2023/06/11 03:20:16;;;;;;;7.57;6.90;;;23.30;1.00;;;;;;4937977;29;20052;-60
2023/06/11 03:22:42;;;;;;;7.57;6.45;;;23.30;1.00;;;;;;4939375;29;20024;-60
2023/06/11 03:25:08;;;;;;;7.25;6.50;;;23.30;1.00;;;;;;4944315;29;20067;-60
2023/06/11 03:27:33;;;;;;;8.35;6.25;;;23.30;1.00;;;;;;4943794;29;20067;-59
2023/06/11 03:29:59;;;;;;;7.43;6.70;;;23.30;1.00;;;;;;4938129;29;20446;-60
2023/06/11 03:32:25;;;;;;;8.95;7.28;;;23.30;1.00;;;;;;4930518;29;20083;-59
2023/06/11 03:34:56;;;;;;;8.00;7.22;;;23.30;1.00;;;;;;4937645;29;20482;-59
2023/06/11 03:37:22;;;;;;;8.63;6.65;;;23.30;1.00;;;;;;4934628;29;20091;-60
2023/06/11 03:39:48;;;;;;;9.73;6.80;;;23.30;1.00;;;;;;4940347;29;20414;-60
2023/06/11 03:42:13;;;;;;;6.80;6.20;;;23.30;1.00;;;;;;4938946;29;20040;-60
2023/06/11 03:44:39;;;;;;;8.65;7.28;;;23.30;1.00;;;;;;4937460;29;20055;-60
2023/06/11 03:47:05;;;;;;;8.52;7.60;;;23.20;1.00;;;;;;4937743;29;20492;-60
2023/06/11 03:49:30;;;;;;;7.28;6.63;;;23.20;1.00;;;;;;4940870;29;20107;-59
2023/06/11 03:51:56;;;;;;;7.63;6.82;;;23.20;1.00;;;;;;4937586;29;20042;-60
2023/06/11 03:54:22;;;;;;;9.18;7.95;;;23.20;1.00;;;;;;4937550;29;20038;-59
2023/06/11 03:56:48;;;;;;;8.05;7.28;;;23.20;1.00;;;;;;4940647;29;20020;-60
2023/06/11 03:59:13;;;;;;;7.45;6.75;;;23.20;1.00;;;;;;4946711;29;20027;-60
2023/06/11 04:01:40;;;;;;;7.97;7.28;;;23.20;1.00;;;;;;4935506;29;20494;-60
2023/06/11 04:04:06;;;;;;;7.65;6.95;;;23.20;1.00;;;;;;4935422;29;20054;-60
2023/06/11 04:06:39;;;;;;;7.10;6.40;;;23.20;1.00;;;;;;4937418;29;20402;-60
2023/06/11 04:09:06;;;;;;;7.18;6.57;;;23.10;1.00;;;;;;4937169;29;20069;-60
2023/06/11 04:11:32;;;;;;;7.43;6.70;;;23.20;1.00;;;;;;4936891;29;20362;-60
2023/06/11 04:13:58;;;;;;;6.43;5.93;;;23.20;1.00;;;;;;4937419;29;20034;-60
2023/06/11 04:16:23;;;;;;;7.28;6.57;;;23.20;1.00;;;;;;4941403;29;20035;-60
2023/06/11 04:18:49;;;;;;;7.38;6.68;;;23.20;1.00;;;;;;4939463;29;20043;-60
2023/06/11 04:21:15;;;;;;;7.50;6.25;;;23.20;1.00;;;;;;4942929;29;20078;-60
2023/06/11 04:23:41;;;;;;;7.72;6.90;;;23.20;1.00;;;;;;4936883;29;20455;-60
2023/06/11 04:26:10;;;;;;;7.32;6.63;;;23.20;1.00;;;;;;4936095;29;20374;-60
2023/06/11 04:28:40;;;;;;;6.38;5.78;;;23.20;1.00;;;;;;4932752;29;20568;-60
2023/06/11 04:31:06;;;;;;;8.75;6.22;;;23.20;1.00;;;;;;4926216;29;20087;-60
2023/06/11 04:34:06;;;;;;;7.68;6.93;;;23.10;1.00;;;;;;4936822;29;20032;-60
2023/06/11 04:36:32;;;;;;;8.73;6.93;;;23.10;1.00;;;;;;4931975;29;20023;-60
2023/06/11 04:39:01;;;;;;;7.20;6.50;;;23.10;1.00;;;;;;4936578;29;20035;-60
2023/06/11 04:41:29;;;;;;;8.32;6.38;;;23.20;1.00;;;;;;4925943;29;20047;-60
2023/06/11 04:43:55;;;;;;;6.93;6.22;;;23.10;1.00;;;;;;4921596;29;20024;-60
2023/06/11 04:46:21;;;;;;;8.27;6.43;;;23.20;1.00;;;;;;4936769;29;20031;-60
2023/06/11 04:48:50;;;;;;;8.38;7.20;;;23.10;1.00;;;;;;4936722;29;20124;-60
2023/06/11 04:51:16;;;;;;;6.75;6.15;;;23.20;1.00;;;;;;4935767;29;20111;-60
2023/06/11 04:53:42;;;;;;;6.20;5.65;;;23.20;1.00;;;;;;4936498;29;20027;-60
2023/06/11 04:56:09;;;;;;;7.85;5.80;;;23.20;1.00;;;;;;4935941;29;20049;-59
2023/06/11 04:58:34;;;;;;;6.40;5.80;;;23.20;1.00;;;;;;4941293;29;20020;-60
2023/06/11 05:01:00;;;;;;;6.72;6.10;;;23.20;1.00;;;;;;4934583;29;20055;-60
2023/06/11 05:03:27;;;;;;;6.60;5.80;;;23.20;1.00;;;;;;4936057;29;20027;-60
2023/06/11 05:05:54;;;;;;;8.15;6.00;;;23.20;1.00;;;;;;4936023;29;20035;-60
2023/06/11 05:08:25;;;;;;;6.78;5.95;;;23.10;1.00;;;;;;4923323;29;20501;-60
2023/06/11 05:10:54;;;;;;;6.45;5.40;;;23.20;1.00;;;;;;4936215;29;20377;-60
2023/06/11 05:13:26;;;;;;;7.63;6.88;;;23.20;1.00;;;;;;4942640;29;20493;-60
2023/06/11 05:15:56;;;;;;;8.27;7.18;;;23.20;1.00;;;;;;4943181;29;20020;-60
2023/06/11 05:18:24;;;;;;;7.43;5.75;;;23.20;1.00;;;;;;4935618;29;20043;-61
2023/06/11 05:20:49;;;;;;;6.63;5.93;;;23.20;1.00;;;;;;4935669;29;20114;-60
2023/06/11 05:23:15;;;;;;;8.40;5.63;;;23.30;1.00;;;;;;4935135;29;20119;-60
2023/06/11 05:25:49;;;;;;;6.82;5.80;;;23.30;1.00;;;;;;4933903;29;20109;-60
2023/06/11 05:28:15;;;;;;;9.32;7.07;;;23.30;1.00;;;;;;4935616;29;20482;-60
2023/06/11 05:30:45;;;;;;;8.52;6.15;;;23.30;1.00;;;;;;4934195;29;20038;-60
2023/06/11 05:33:16;;;;;;;8.90;6.88;;;23.30;1.00;;;;;;4935587;29;20032;-61
2023/06/11 05:35:43;;;;;;;7.30;6.18;;;23.30;1.00;;;;;;4924937;29;20087;-60
2023/06/11 05:38:09;;;;;;;7.93;6.30;;;23.30;1.00;;;;;;4935386;29;20164;-60
2023/06/11 05:40:38;;;;;;;7.22;6.53;;;23.30;1.00;;;;;;4934815;29;20059;-60
2023/06/11 05:43:05;;;;;;;7.07;6.38;;;23.30;1.00;;;;;;4935470;29;20056;-60
2023/06/11 05:45:32;;;;;;;6.55;5.95;;;23.30;1.00;;;;;;4935338;29;20042;-60
2023/06/11 05:47:58;;;;;;;6.75;6.05;;;23.30;1.00;;;;;;4931924;29;20462;-60
2023/06/11 05:50:24;;;;;;;8.25;6.43;;;23.40;1.00;;;;;;4938667;29;20024;-60
2023/06/11 05:52:50;;;;;;;7.68;6.88;;;23.30;1.00;;;;;;4935306;29;20039;-60
2023/06/11 05:55:15;;;;;;;7.25;6.45;;;23.40;1.00;;;;;;4935808;29;20028;-60
2023/06/11 05:57:41;;;;;;;8.70;6.53;;;23.30;1.00;;;;;;4936787;29;20315;-60
2023/06/11 06:00:10;;;;;;;7.90;6.70;;;23.40;1.00;;;;;;4939799;29;20043;-60
2023/06/11 06:02:36;;;;;;;7.15;6.30;;;23.40;1.00;;;;;;4901509;29;20017;-60
2023/06/11 06:05:02;;;;;;;7.00;6.28;;;23.40;1.00;;;;;;4939423;29;20032;-60
2023/06/11 06:07:27;;;;;;;6.82;6.18;;;23.50;1.00;;;;;;4934822;29;20036;-60
2023/06/11 06:09:53;;;;;;;7.95;6.88;;;23.50;1.00;;;;;;4916086;29;20040;-60
2023/06/11 06:12:19;;;;;;;8.10;6.47;;;23.50;1.00;;;;;;4941873;29;20019;-60
2023/06/11 06:14:44;;;;;;;7.88;7.07;;;23.50;1.00;;;;;;4932870;29;20036;-60
2023/06/11 06:17:10;;;;;;;7.75;6.43;;;23.50;1.00;;;;;;4941994;29;20087;-60
2023/06/11 06:19:35;;;;;;;8.52;7.18;;;23.50;1.00;;;;;;4934666;29;20048;-60
2023/06/11 06:22:01;;;;;;;7.97;6.60;;;23.60;1.00;;;;;;4948772;29;20478;-60
2023/06/11 06:24:27;;;;;;;8.35;7.18;;;23.60;1.00;;;;;;4941350;29;20071;-60
2023/06/11 06:26:56;;;;;;;10.05;7.55;;;23.60;1.00;;;;;;4941335;29;20035;-60
2023/06/11 06:29:23;;;;;;;7.80;6.78;;;23.60;1.00;;;;;;4941155;29;20418;-60
2023/06/11 06:32:14;;;;;;;6.68;6.03;;;23.60;1.00;;;;;;4939316;29;20477;-60
2023/06/11 06:34:40;;;;;;;6.55;5.95;;;23.70;1.00;;;;;;4939304;29;20024;-60
2023/06/11 06:37:06;;;;;;;6.72;5.95;;;23.70;1.00;;;;;;4941439;29;20020;-61
2023/06/11 06:39:32;;;;;;;6.30;5.65;;;23.70;1.00;;;;;;4960112;28;20553;-62
2023/06/11 06:41:58;;;;;;;7.28;5.70;;;23.70;1.00;;;;;;4947054;29;20039;-61
2023/06/11 06:44:24;;;;;;;7.00;6.28;;;23.80;1.00;;;;;;4941450;29;20087;-61
2023/06/11 06:46:49;;;;;;;8.27;5.93;;;23.80;1.00;;;;;;4941183;29;20035;-61
2023/06/11 06:49:15;;;;;;;7.85;7.05;;;23.80;1.00;;;;;;4941873;29;20024;-61
2023/06/11 06:51:41;;;;;;;8.05;5.80;;;23.80;1.00;;;;;;4944551;29;20452;-62
2023/06/11 06:54:06;;;;;;;7.38;5.95;;;23.90;1.00;;;;;;4941873;29;20090;-61
2023/06/11 06:56:33;;;;;;;8.15;6.00;;;23.90;1.00;;;;;;4929688;29;20409;-61
2023/06/11 06:58:59;;;;;;;11.10;6.10;;;23.90;1.00;;;;;;4927562;29;20082;-62
2023/06/11 07:01:25;;;;;;;7.18;6.47;;;23.90;99.90;;;;;;4946930;29;20044;-61
2023/06/11 07:03:50;;;;;;;7.90;5.75;;;23.90;99.90;;;;;;4942114;29;20023;-62
2023/06/11 07:06:16;;;;;;;6.90;5.18;;;23.90;99.90;;;;;;4949267;29;20033;-62
2023/06/11 07:08:42;;;;;;;7.32;6.13;;;24.00;99.90;;;;;;4942204;29;20169;-61
2023/06/11 07:11:08;;;;;;;8.73;5.82;;;24.00;99.90;;;;;;4951525;28;20031;-59
2023/06/11 07:13:35;;;;;;;5.70;5.10;;;24.00;99.90;;;;;;4942914;29;20082;-61
2023/06/11 07:16:02;;;;;;;8.13;6.18;;;24.00;99.90;;;;;;4940878;29;20466;-59
2023/06/11 07:18:28;;;;;;;7.13;5.47;;;24.10;99.90;;;;;;4941040;29;20043;-61
2023/06/11 07:20:53;;;;;;;5.70;4.88;;;24.10;99.90;;;;;;4948828;28;20045;-61
2023/06/11 07:23:19;;;;;;;5.28;4.78;;;24.10;99.90;;;;;;4937904;29;20062;-61
2023/06/11 07:25:47;;;;;;;5.22;4.72;;;24.10;99.90;;;;;;4941820;29;20051;-61
2023/06/11 07:28:12;;;;;;;6.00;5.40;;;24.20;99.90;;;;;;4933372;29;20017;-61
2023/06/11 07:30:38;;;;;;;8.40;5.13;;;24.30;99.90;;;;;;4932645;29;20054;-61
2023/06/11 07:33:04;;;;;;;5.93;4.75;;;24.40;99.90;;;;;;4932571;29;20024;-61
2023/06/11 07:35:30;;;;;;;5.78;5.18;;;24.50;99.90;;;;;;4938007;29;20049;-61
2023/06/11 07:37:56;;;;;;;9.57;5.05;;;24.50;99.90;;;;;;4938095;29;20090;-61
2023/06/11 07:40:22;;;;;;;7.68;5.95;;;24.60;99.90;;;;;;4938021;29;20127;-61
2023/06/11 07:42:48;;;;;;;7.63;6.30;;;24.50;99.90;;;;;;4937352;29;20031;-61
2023/06/11 07:45:14;;;;;;;6.55;5.72;;;24.50;99.90;;;;;;4936937;29;20093;-61
2023/06/11 07:47:41;;;;;;;6.60;5.97;;;24.50;99.90;;;;;;4919971;29;20501;-64
2023/06/11 07:50:08;;;;;;;7.80;7.10;;;24.50;99.90;;;;;;4938832;29;20035;-64
2023/06/11 07:52:34;;;;;;;10.75;6.93;;;24.40;99.90;;;;;;4937466;29;20133;-64
2023/06/11 07:55:06;;;;;;;8.02;7.03;;;24.50;99.90;;;;;;4939248;29;20036;-64
2023/06/11 07:57:32;;;;;;;6.57;5.97;;;24.40;99.90;;;;;;4936969;29;20036;-63
2023/06/11 07:59:58;;;;;;;9.38;8.40;;;24.70;99.90;;;;;;4936159;29;20024;-63
2023/06/11 08:02:24;;;;;;;7.90;5.45;;;24.70;99.90;;;;;;4937007;29;20027;-64
2023/06/11 08:04:50;;;;;;;6.45;5.85;;;24.80;99.90;;;;;;4945733;29;20035;-64
2023/06/11 08:07:15;;;;;;;7.18;6.32;;;24.90;99.90;;;;;;4935290;29;20030;-64
2023/06/11 08:09:41;;;;;;;8.18;6.60;;;24.90;99.90;;;;;;4937054;29;20028;-64
2023/06/11 08:12:08;;;;;;;7.55;6.78;;;25.10;99.90;;;;;;4935424;29;20070;-64
2023/06/11 08:14:35;;;;;;;7.38;6.68;;;25.00;99.90;;;;;;4937420;29;20039;-64
2023/06/11 08:17:01;;;;;;;7.13;6.25;;;24.90;99.90;;;;;;4916994;29;20115;-63
2023/06/11 08:19:26;;;;;;;6.57;6.03;;;25.00;99.90;;;;;;4930802;29;20127;-63
2023/06/11 08:21:55;;;;;;;14.10;8.65;;;25.10;99.90;;;;;;4937574;29;20393;-63
2023/06/11 08:24:21;;;;;;;10.35;9.27;;;25.20;99.90;;;;;;4937183;29;20359;-63
2023/06/11 08:26:48;;;;;;;7.72;6.90;;;25.20;99.90;;;;;;4936618;29;20526;-63
2023/06/11 08:29:14;;;;;;;8.75;7.63;;;25.20;99.90;;;;;;4938284;29;20027;-63
2023/06/11 08:31:40;;;;;;;9.52;7.47;;;25.40;99.90;;;;;;4936201;29;20039;-62
2023/06/11 08:34:05;;;;;;;4.88;4.43;;;25.40;99.90;;;;;;4939495;29;20027;-62
2023/06/11 08:36:31;;;;;;;7.10;5.38;;;25.50;99.90;;;;;;4928428;29;20111;-62
2023/06/11 08:38:57;;;;;;;6.93;6.18;;;25.60;99.90;;;;;;4937121;29;20035;-62
2023/06/11 08:41:23;;;;;;;9.82;5.05;;;25.60;99.90;;;;;;4923093;29;20409;-62
2023/06/11 08:43:49;;;;;;;7.05;6.40;;;25.60;99.90;;;;;;4942350;29;20448;-62
2023/06/11 08:46:15;;;;;;;12.15;9.23;;;25.70;99.90;;;;;;4919681;29;20394;-62
2023/06/11 08:48:43;;;;;;;6.60;5.85;;;25.50;99.90;;;;;;4936885;29;20027;-62
2023/06/11 08:51:12;;;;;;;11.82;10.05;;;25.60;99.90;;;;;;4939145;29;20386;-62
2023/06/11 08:53:39;;;;;;;7.25;5.90;;;25.70;99.90;;;;;;4937297;29;20034;-62
2023/06/11 08:56:06;;;;;;;11.45;9.75;;;25.80;99.90;;;;;;4925203;29;20160;-62
2023/06/11 08:58:34;;;;;;;12.50;10.75;;;25.70;99.90;;;;;;4917281;29;20028;-62
2023/06/11 09:01:10;;;;;;;9.88;8.85;;;25.60;99.90;;;;;;4930941;29;20042;-62
2023/06/11 09:03:37;;;;;;;10.90;9.45;;;25.60;99.90;;;;;;4941519;29;20032;-62
2023/06/11 09:06:03;;;;;;;12.57;10.43;;;25.50;99.90;;;;;;4935269;29;20470;-62
2023/06/11 09:08:29;;;;;;;11.57;9.45;;;25.70;99.90;;;;;;4936444;29;20152;-62
2023/06/11 09:10:55;;;;;;;8.75;7.85;;;25.80;99.90;;;;;;4933667;29;20028;-62
2023/06/11 09:13:27;;;;;;;13.07;10.52;;;25.90;99.90;;;;;;4941250;29;20035;-62
2023/06/11 09:15:57;;;;;;;9.82;8.23;;;25.90;99.90;;;;;;4941158;29;20075;-62
2023/06/11 09:18:24;;;;;;;11.52;10.23;;;26.00;99.90;;;;;;4936085;29;20050;-62
2023/06/11 09:20:52;;;;;;;10.18;9.23;;;26.00;99.90;;;;;;4941773;29;20042;-62
2023/06/11 09:23:32;;;;;;;11.68;6.55;;;26.10;99.90;;;;;;4939625;29;20024;-64
2023/06/11 09:25:59;;;;;;;10.00;8.43;;;26.10;99.90;;;;;;4929334;29;20027;-64
2023/06/11 09:28:35;;;;;;;9.82;7.75;;;26.20;99.90;;;;;;4935300;29;20032;-66
2023/06/11 09:31:03;;;;;;;9.88;7.22;;;26.20;99.90;;;;;;4926608;29;20416;-66
2023/06/11 09:33:30;;;;;;;8.95;7.80;;;26.30;99.90;;;;;;4933322;29;20095;-67
2023/06/11 09:35:57;;;;;;;11.55;10.25;;;26.30;99.90;;;;;;4936020;29;20145;-66
2023/06/11 09:38:23;;;;;;;11.95;9.75;;;26.50;99.90;;;;;;4935800;29;20385;-66
2023/06/11 09:40:50;;;;;;;11.85;10.60;;;26.50;99.90;;;;;;4922389;29;20561;-66
2023/06/11 09:43:23;;;;;;;9.52;8.57;;;26.50;99.90;;;;;;4927985;29;20043;-65
2023/06/11 09:45:52;;;;;;;18.30;11.50;;;26.60;99.90;;;;;;4936027;29;20062;-67
2023/06/11 09:48:41;;;;;;;12.38;9.70;;;26.80;99.90;;;;;;5070072;28;20460;-65
2023/06/11 09:51:07;;;;;;;12.00;10.75;;;26.90;99.90;;;;;;5069505;28;20100;-64
2023/06/11 09:53:33;;;;;;;14.57;11.90;;;26.90;99.90;;;;;;5068459;28;20099;-64
2023/06/11 09:55:59;;;;;;;11.68;10.35;;;27.10;99.90;;;;;;5065330;28;20032;-65
2023/06/11 09:58:27;;;;;;;11.90;10.40;;;27.00;99.90;;;;;;5065331;28;20083;-65
2023/06/11 10:01:00;;;;;;;9.52;8.50;;;27.10;99.90;;;;;;5050252;28;20071;-66
2023/06/11 10:03:30;;;;;;;12.00;10.80;;;27.10;99.90;;;;;;5065931;28;20387;-65
2023/06/11 10:05:56;;;;;;;12.50;11.05;;;27.10;99.90;;;;;;5041956;28;20017;-65
2023/06/11 10:08:25;;;;;;;13.52;8.38;;;27.30;99.90;;;;;;5050308;28;20087;-67
2023/06/11 10:10:56;;;;;;;12.82;8.73;;;27.40;99.90;;;;;;5060696;28;20027;-66
2023/06/11 10:13:34;;;;;;;8.90;7.90;;;27.40;99.90;;;;;;5056399;28;20032;-66
2023/06/11 10:16:02;;;;;;;10.18;7.93;;;27.30;99.90;;;;;;5058774;28;20113;-65
2023/06/11 10:18:29;;;;;;;12.50;11.20;;;27.40;99.90;;;;;;5053561;28;20025;-65
2023/06/11 10:20:58;;;;;;;12.20;10.82;;;27.50;99.90;;;;;;5059766;28;20031;-65
2023/06/11 10:23:50;;;;;;;11.35;10.13;;;27.70;99.90;;;;;;5045006;28;20049;-66
2023/06/11 10:26:15;;;;;;;14.23;12.60;;;27.90;99.90;;;;;;5042928;28;20024;-65
2023/06/11 10:28:43;;;;;;;13.48;11.50;;;28.10;99.90;;;;;;5067738;28;20487;-65
2023/06/11 10:31:09;;;;;;;14.85;13.35;;;28.20;99.90;;;;;;5068862;28;20021;-66
2023/06/11 10:33:36;;;;;;;11.10;9.95;;;28.00;99.90;;;;;;5069241;28;20029;-65
2023/06/11 10:36:02;;;;;;;12.88;11.50;;;28.20;99.90;;;;;;5068720;28;20052;-65
2023/06/11 10:38:29;;;;;;;11.35;10.15;;;28.10;99.90;;;;;;5069117;28;20049;-66
2023/06/11 10:41:05;;;;;;;12.85;11.55;;;28.30;99.90;;;;;;5037686;28;20355;-66
2023/06/11 10:43:34;;;;;;;11.40;10.25;;;28.30;99.90;;;;;;5047089;28;20037;-66
2023/06/11 10:46:04;;;;;;;11.82;10.75;;;28.30;99.90;;;;;;5051716;28;20036;-66
2023/06/11 10:48:35;;;;;;;13.25;11.85;;;28.40;99.90;;;;;;5049314;28;20406;-66
2023/06/11 10:51:02;;;;;;;12.75;11.05;;;28.30;99.90;;;;;;5048931;28;20666;-66
2023/06/11 10:53:39;;;;;;;12.30;11.10;;;28.60;99.90;;;;;;5047374;28;20045;-66
2023/06/11 10:56:09;;;;;;;11.55;10.38;;;28.70;99.90;;;;;;5048645;28;20029;-66
2023/06/11 10:58:36;;;;;;;11.40;10.05;;;28.60;99.90;;;;;;5043321;28;20040;-66
2023/06/11 11:01:04;;;;;;;9.77;8.77;;;29.00;99.90;;;;;;5040119;28;20033;-66
2023/06/11 11:03:31;;;;;;;12.32;11.07;;;28.80;99.90;;;;;;5038594;28;20096;-66
2023/06/11 11:05:57;;;;;;;15.18;13.57;;;29.00;99.90;;;;;;5036077;28;20029;-66
2023/06/11 11:08:23;;;;;;;13.50;12.18;;;29.10;99.90;;;;;;5034560;28;20088;-66
2023/06/11 11:11:01;;;;;;;13.85;12.43;;;29.10;99.90;;;;;;5035744;28;20032;-66
2023/06/11 11:13:31;;;;;;;13.93;11.40;;;29.40;99.90;;;;;;5035637;28;20541;-66
2023/06/11 11:15:59;;;;;;;11.20;10.00;;;29.70;99.90;;;;;;5035831;28;20059;-66
2023/06/11 11:18:25;;;;;;;12.13;10.55;;;30.70;99.90;;;;;;5031105;28;20037;-66
2023/06/11 11:20:53;;;;;;;8.93;8.13;;;33.30;99.90;;;;;;5034505;28;20422;-66
2023/06/11 11:23:19;;;;;;;12.82;11.40;;;36.00;99.90;;;;;;5029749;28;20037;-65
2023/06/11 11:25:45;;;;;;;10.77;9.70;;;37.80;99.90;;;;;;5035529;28;20029;-66
2023/06/11 11:28:12;;;;;;;15.32;14.02;;;38.70;99.90;;;;;;5035293;28;20482;-66
2023/06/11 11:30:39;;;;;;;11.13;9.70;;;38.60;99.90;;;;;;5035268;28;20459;-66
2023/06/11 11:33:05;;;;;;;11.80;10.65;;;39.90;99.90;;;;;;5035346;28;20033;-66
2023/06/11 11:35:30;;;;;;;10.68;9.68;;;41.00;99.90;;;;;;5032227;28;20030;-66
2023/06/11 11:37:56;;;;;;;12.50;11.40;;;42.00;99.90;;;;;;5035162;28;20021;-66
2023/06/11 11:40:23;;;;;;;12.95;11.13;;;42.40;99.90;;;;;;5033858;28;20114;-66
2023/06/11 11:42:52;;;;;;;12.75;11.57;;;42.30;99.90;;;;;;5035112;28;20018;-66
2023/06/11 11:45:21;;;;;;;12.50;11.27;;;41.80;99.90;;;;;;5035132;28;20029;-66
2023/06/11 11:47:51;;;;;;;10.75;9.65;;;41.60;99.90;;;;;;5034621;28;20059;-65
2023/06/11 11:50:19;;;;;;;10.80;9.80;;;41.20;99.90;;;;;;5028909;28;20108;-65
2023/06/11 11:52:57;;;;;;;11.38;10.48;;;40.70;99.90;;;;;;5030453;28;20032;-65
2023/06/11 11:55:23;;;;;;;8.80;8.18;;;40.50;99.90;;;;;;5036056;28;20034;-65
2023/06/11 11:57:50;;;;;;;10.90;9.90;;;39.90;99.90;;;;;;5033667;28;20021;-65
2023/06/11 12:00:25;;;;;;;8.48;7.82;;;38.30;99.90;;;;;;5034846;28;20039;-65
2023/06/11 12:02:51;;;;;;;8.43;7.63;;;36.40;99.90;;;;;;5026250;28;20034;-65
2023/06/11 12:05:16;;;;;;;11.07;10.18;;;36.90;99.90;;;;;;5038308;28;20029;-65
2023/06/11 12:07:52;;;;;;;10.80;9.80;;;37.00;99.90;;;;;;5037268;28;20040;-61
2023/06/11 12:10:17;;;;;;;8.85;8.15;;;36.70;99.90;;;;;;5025008;28;20040;-61
2023/06/11 12:12:43;;;;;;;11.68;10.55;;;37.50;99.90;;;;;;5043883;28;20475;-61
2023/06/11 12:15:09;;;;;;;9.88;9.00;;;37.80;99.90;;;;;;5041538;28;20028;-61
2023/06/11 12:17:38;;;;;;;11.80;10.60;;;38.40;99.90;;;;;;5044973;28;20513;-61
2023/06/11 12:20:05;;;;;;;9.45;8.65;;;38.50;99.90;;;;;;5022143;28;20117;-61
2023/06/11 12:22:31;;;;;;;9.05;8.40;;;38.40;99.90;;;;;;5043424;28;20107;-61
2023/06/11 12:24:56;;;;;;;8.63;7.90;;;38.50;99.90;;;;;;5038499;28;20116;-61
2023/06/11 12:27:22;;;;;;;8.95;8.25;;;38.20;99.90;;;;;;5041394;28;20033;-62
2023/06/11 12:29:53;;;;;;;8.88;8.15;;;38.50;99.90;;;;;;5036260;28;20025;-62
2023/06/11 12:32:21;;;;;;;10.68;9.93;;;37.90;99.90;;;;;;5019023;28;20104;-60
2023/06/11 12:34:50;;;;;;;9.50;8.80;;;37.20;99.90;;;;;;5051406;28;20037;-61
2023/06/11 12:37:16;;;;;;;11.23;10.20;;;36.80;99.90;;;;;;5031987;28;20017;-61
2023/06/11 12:39:43;;;;;;;9.20;8.40;;;35.60;99.90;;;;;;5049426;28;20032;-60
2023/06/11 12:42:16;;;;;;;8.80;8.07;;;36.70;99.90;;;;;;5046945;28;20037;-60
2023/06/11 12:44:42;;;;;;;9.43;8.57;;;35.50;99.90;;;;;;5038448;28;20417;-61
2023/06/11 12:47:08;;;;;;;8.63;7.88;;;35.90;99.90;;;;;;5038743;28;20060;-77
2023/06/11 12:49:34;;;;;;;7.13;6.70;;;36.70;99.90;;;;;;5022252;28;20032;-75
2023/06/11 12:52:00;;;;;;;8.73;7.88;;;37.30;99.90;;;;;;5042854;28;20043;-66
2023/06/11 12:54:26;;;;;;;8.77;8.18;;;35.90;99.90;;;;;;5048376;28;20383;-64